Terminal Aerodrome Forecast
Issued by NWS Omaha/Valley, NE

Home | Current Version | Previous Version | Graphics & Text | Print | Product List | Glossary On
Versions: 1 2 3 4 5 6 7 8 9 10 11 12 13 14 15 16 17 18 19 20 21 22 23 24 25 26 27 28 29 30 31 32 33 34 35 36 37 38 39 40 41 42 43 44 45 46 47 48 49 50
658
FTUS43 KOAX 051120
TAFOFK
TAF
KOFK 051120Z 0512/0612 18005KT P6SM SCT050 OVC100
     FM051300 18007KT P6SM SCT025 OVC035
     FM051500 20010KT 2SM -SN BR OVC015
     FM051700 30010KT P6SM OVC025
      TEMPO 0523/0601 2SM -SN BR OVC015
     FM060400 30006KT P6SM SKC=

USA.gov is the U.S. government's official web portal to all federal, state and local government web resources and services.